createdAt,value
2018-12-01T00:01:02.218Z,97971.10
2018-12-01T00:03:32.948Z,97962.15
2018-12-01T00:06:03.492Z,97967.78
2018-12-01T00:08:34.723Z,97964.25
2018-12-01T00:11:04.326Z,97963.77
2018-12-01T00:13:34.630Z,97961.66
2018-12-01T00:16:04.529Z,97961.23
2018-12-01T00:18:34.586Z,97971.98
2018-12-01T00:21:04.434Z,97974.02
2018-12-01T00:23:35.007Z,97965.94
2018-12-01T00:26:04.918Z,97964.41
2018-12-01T00:28:35.307Z,97960.41
2018-12-01T00:31:04.990Z,97957.78
2018-12-01T00:33:36.105Z,97964.76
2018-12-01T00:36:06.547Z,97963.39
2018-12-01T00:38:55.886Z,97961.30
2018-12-01T00:41:25.496Z,97964.64
2018-12-01T00:43:55.725Z,97962.57
2018-12-01T00:46:25.333Z,97959.56
2018-12-01T00:48:55.342Z,97964.26
2018-12-01T00:51:25.577Z,97968.63
2018-12-01T00:53:56.084Z,97965.87
2018-12-01T00:56:26.670Z,97971.14
2018-12-01T00:58:56.277Z,97974.91
2018-12-01T01:01:26.258Z,97979.48
2018-12-01T01:03:56.176Z,97988.77
2018-12-01T01:06:26.482Z,97988.14
2018-12-01T01:08:56.112Z,97982.97
2018-12-01T01:11:44.629Z,97987.84
2018-12-01T01:14:14.998Z,97989.68
2018-12-01T01:16:45.220Z,97996.24
2018-12-01T01:19:15.527Z,97999.50
2018-12-01T01:21:45.470Z,97992.05
2018-12-01T01:24:15.371Z,97989.55
2018-12-01T01:26:45.014Z,97982.60
2018-12-01T01:29:14.990Z,97992.12
2018-12-01T01:31:44.621Z,97992.98
2018-12-01T01:34:15.261Z,97991.42
2018-12-01T01:36:45.814Z,97993.61
2018-12-01T01:39:15.712Z,97998.38
2018-12-01T01:41:45.707Z,98005.63
2018-12-01T01:44:16.236Z,98001.63
2018-12-01T01:46:45.865Z,98008.66
2018-12-01T01:49:16.580Z,98012.44
2018-12-01T01:51:46.542Z,98014.78
2018-12-01T01:54:17.041Z,98013.80
2018-12-01T01:56:47.231Z,98020.48
2018-12-01T01:59:17.141Z,98020.69
2018-12-01T02:01:47.067Z,98008.91
2018-12-01T02:04:17.463Z,98010.95
2018-12-01T02:06:47.347Z,98006.94
2018-12-01T02:09:17.992Z,98010.41
2018-12-01T02:11:48.259Z,98009.38
2018-12-01T02:14:17.891Z,98009.40
2018-12-01T02:16:47.791Z,98013.66
2018-12-01T02:19:17.777Z,98013.97
2018-12-01T02:21:47.768Z,98013.30
2018-12-01T02:24:18.036Z,98009.58
2018-12-01T02:26:47.947Z,98004.56
2018-12-01T02:29:18.240Z,98008.45
2018-12-01T02:31:47.852Z,98008.48
2018-12-01T02:34:18.123Z,98015.30
2018-12-01T02:36:48.461Z,98007.99
2018-12-01T02:39:18.538Z,98011.86
2018-12-01T02:41:49.040Z,98007.81
2018-12-01T02:45:05.175Z,98006.38
2018-12-01T02:47:35.907Z,98017.64
2018-12-01T02:50:13.808Z,98011.06
2018-12-01T02:52:43.510Z,98015.39
2018-12-01T02:55:13.738Z,98018.07
2018-12-01T02:57:43.963Z,98011.61
2018-12-01T03:00:14.221Z,98015.02
2018-12-01T03:02:44.426Z,98017.51
2018-12-01T03:05:14.399Z,98014.77
2018-12-01T03:07:44.004Z,98021.94
2018-12-01T03:10:17.622Z,98021.67
2018-12-01T03:12:47.543Z,98015.59
2018-12-01T03:15:21.259Z,98013.83
2018-12-01T03:17:52.496Z,98020.02
2018-12-01T03:20:22.411Z,98018.28
2018-12-01T03:22:52.735Z,98022.77
2018-12-01T03:25:23.234Z,98021.03
2018-12-01T03:27:54.221Z,98026.34
2018-12-01T03:30:27.495Z,98026.45
2018-12-01T03:32:57.120Z,98024.85
2018-12-01T03:35:26.973Z,98019.38
2018-12-01T03:37:57.651Z,98022.86
2018-12-01T03:40:28.143Z,98026.95
2018-12-01T03:42:57.761Z,98025.31
2018-12-01T03:45:27.702Z,98027.37
2018-12-01T03:47:57.596Z,98032.51
2018-12-01T03:50:27.530Z,98021.64
2018-12-01T03:52:58.285Z,98018.66
2018-12-01T03:55:31.901Z,98024.90
2018-12-01T03:58:02.295Z,98020.55
2018-12-01T04:00:32.768Z,98019.10
2018-12-01T04:03:03.458Z,98024.05
2018-12-01T04:05:33.506Z,98013.70
2018-12-01T04:08:03.911Z,98019.31
2018-12-01T04:10:34.103Z,98016.77
2018-12-01T04:13:05.305Z,98020.56
2018-12-01T04:15:35.903Z,98019.94
2018-12-01T04:18:05.846Z,98020.77
2018-12-01T04:20:35.509Z,98020.57
2018-12-01T04:23:06.109Z,98021.17
2018-12-01T04:25:36.656Z,98026.70
2018-12-01T04:28:06.697Z,98022.78
2018-12-01T04:30:37.245Z,98025.63
2018-12-01T04:33:07.200Z,98022.66
2018-12-01T04:35:37.160Z,98029.33
2018-12-01T04:38:07.022Z,98029.42
2018-12-01T04:40:36.642Z,98032.25
2018-12-01T04:43:06.657Z,98024.39
2018-12-01T04:45:36.928Z,98020.44
2018-12-01T04:48:06.809Z,98026.02
2018-12-01T04:50:36.851Z,98024.33
2018-12-01T04:53:07.688Z,98022.89
2018-12-01T04:55:37.333Z,98023.38
2018-12-01T04:58:07.719Z,98029.43
2018-12-01T05:00:37.955Z,98028.38
2018-12-01T05:03:07.571Z,98027.02
2018-12-01T05:05:37.583Z,98021.83
2018-12-01T05:08:07.437Z,98033.09
2018-12-01T05:10:37.722Z,98038.66
2018-12-01T05:13:07.598Z,98037.96
2018-12-01T05:15:37.210Z,98042.89
2018-12-01T05:18:08.277Z,98031.30
2018-12-01T05:20:38.486Z,98040.70
2018-12-01T05:23:08.383Z,98042.07
2018-12-01T05:25:38.333Z,98040.78
2018-12-01T05:28:07.962Z,98039.91
2018-12-01T05:30:37.961Z,98041.08
2018-12-01T05:33:07.892Z,98044.77
2018-12-01T05:35:37.589Z,98046.00
2018-12-01T05:38:07.208Z,98045.30
2018-12-01T05:40:37.092Z,98053.12
2018-12-01T05:43:07.722Z,98051.30
2018-12-01T05:45:37.345Z,98048.95
2018-12-01T05:48:07.962Z,98049.80
2018-12-01T05:50:38.186Z,98061.38
2018-12-01T05:53:08.105Z,98064.42
2018-12-01T05:55:38.607Z,98059.85
2018-12-01T05:58:08.248Z,98064.02
2018-12-01T06:00:38.553Z,98064.08
2018-12-01T06:03:09.335Z,98066.27
2018-12-01T06:05:39.310Z,98055.36
2018-12-01T06:08:09.326Z,98044.53
2018-12-01T06:10:39.559Z,98064.13
2018-12-01T06:13:09.569Z,98063.85
2018-12-01T06:15:39.875Z,98064.14
2018-12-01T06:18:09.807Z,98063.30
2018-12-01T06:20:40.027Z,98073.36
2018-12-01T06:23:10.237Z,98071.92
2018-12-01T06:25:40.471Z,98080.47
2018-12-01T06:28:10.346Z,98081.30
2018-12-01T06:30:40.615Z,98082.65
2018-12-01T06:33:10.233Z,98086.94
2018-12-01T06:35:40.227Z,98091.66
2018-12-01T06:38:10.131Z,98093.30
2018-12-01T06:40:39.742Z,98092.35
2018-12-01T06:43:09.612Z,98102.58
2018-12-01T06:45:39.230Z,98103.90
2018-12-01T06:48:09.499Z,98108.06
2018-12-01T06:50:39.544Z,98102.97
2018-12-01T06:53:09.467Z,98105.77
2018-12-01T06:55:39.112Z,98109.95
2018-12-01T06:58:09.704Z,98117.13
2018-12-01T07:00:39.897Z,98115.76
2018-12-01T07:03:09.508Z,98117.84
2018-12-01T07:05:40.497Z,98119.44
2018-12-01T07:08:10.554Z,98118.89
2018-12-01T07:10:40.471Z,98116.17
2018-12-01T07:13:10.398Z,98120.88
2018-12-01T07:15:41.003Z,98124.08
2018-12-01T07:18:46.362Z,98131.58
2018-12-01T07:21:16.055Z,98125.86
2018-12-01T07:23:45.710Z,98120.03
2018-12-01T07:26:34.264Z,98118.13
2018-12-01T07:29:04.882Z,98124.02
2018-12-01T07:31:34.510Z,98128.05
2018-12-01T07:34:04.394Z,98125.53
2018-12-01T07:36:34.007Z,98121.98
2018-12-01T07:39:04.081Z,98123.02
2018-12-01T07:41:34.365Z,98113.83
2018-12-01T07:44:04.351Z,98113.59
2018-12-01T07:46:33.974Z,98111.16
2018-12-01T07:49:03.867Z,98114.15
2018-12-01T07:51:33.478Z,98119.61
2018-12-01T07:54:03.139Z,98121.15
2018-12-01T07:56:33.110Z,98127.36
2018-12-01T07:59:03.444Z,98127.84
2018-12-01T08:01:33.437Z,98121.28
2018-12-01T08:04:03.068Z,98133.37
2018-12-01T08:06:52.948Z,98129.09
2018-12-01T08:09:22.546Z,98129.02
2018-12-01T08:11:52.483Z,98133.45
2018-12-01T08:14:22.158Z,98134.63
2018-12-01T08:16:51.812Z,98136.28
2018-12-01T08:19:22.105Z,98125.06
2018-12-01T08:21:52.018Z,98125.65
2018-12-01T08:24:22.094Z,98127.25
2018-12-01T08:26:52.179Z,98129.15
2018-12-01T08:29:22.482Z,98124.96
2018-12-01T08:31:52.754Z,98129.97
2018-12-01T08:34:22.757Z,98118.27
2018-12-01T08:36:53.146Z,98116.03
2018-12-01T08:39:23.355Z,98117.27
2018-12-01T08:41:53.912Z,98114.75
2018-12-01T08:44:23.803Z,98118.16
2018-12-01T08:46:53.914Z,98116.20
2018-12-01T08:49:23.582Z,98113.36
2018-12-01T08:51:53.534Z,98111.77
2018-12-01T08:54:23.450Z,98106.25
2018-12-01T08:56:53.387Z,98105.28
2018-12-01T08:59:23.602Z,98097.08
2018-12-01T09:01:53.499Z,98094.54
2018-12-01T09:04:43.397Z,98095.41
2018-12-01T09:07:32.919Z,98101.09
2018-12-01T09:10:02.568Z,98096.30
2018-12-01T09:12:52.230Z,98106.05
2018-12-01T09:15:21.903Z,98108.57
2018-12-01T09:17:52.338Z,98105.75
2018-12-01T09:20:22.647Z,98107.88
2018-12-01T09:23:12.564Z,98109.47
2018-12-01T09:25:43.074Z,98110.46
2018-12-01T09:28:12.695Z,98103.47
2018-12-01T09:31:01.482Z,98111.48
2018-12-01T09:33:32.225Z,98103.44
2018-12-01T09:36:21.498Z,98093.77
2018-12-01T09:38:51.428Z,98095.16
2018-12-01T09:41:40.549Z,98093.73
2018-12-01T09:44:10.809Z,98101.33
2018-12-01T09:46:40.711Z,98102.05
2018-12-01T09:49:10.661Z,98100.60
2018-12-01T09:51:40.861Z,98101.98
2018-12-01T09:54:10.449Z,98100.85
2018-12-01T09:56:59.522Z,98093.27
2018-12-01T09:59:29.694Z,98097.78
2018-12-01T10:01:59.670Z,98091.66
2018-12-01T10:04:29.290Z,98089.98
2018-12-01T10:06:59.557Z,98092.41
2018-12-01T10:09:29.420Z,98088.56
2018-12-01T10:11:59.329Z,98087.48
2018-12-01T10:14:29.020Z,98087.25
2018-12-01T10:16:59.343Z,98087.97
2018-12-01T10:19:29.278Z,98088.66
2018-12-01T10:21:59.200Z,98090.31
2018-12-01T10:24:28.824Z,98083.17
2018-12-01T10:26:58.433Z,98081.44
2018-12-01T10:29:28.729Z,98079.08
2018-12-01T10:31:58.360Z,98071.44
2018-12-01T10:34:47.198Z,98073.08
2018-12-01T10:37:16.806Z,98069.55
2018-12-01T10:39:59.310Z,98066.80
2018-12-01T10:42:18.273Z,98054.33
2018-12-01T10:44:48.215Z,98050.12
2018-12-01T10:47:18.102Z,98047.18
2018-12-01T10:49:47.977Z,98050.42
2018-12-01T10:52:17.944Z,98053.41
2018-12-01T10:54:47.851Z,98052.55
2018-12-01T10:57:17.874Z,98060.98
2018-12-01T10:59:48.099Z,98063.82
2018-12-01T11:02:56.025Z,98064.54
2018-12-01T11:05:25.860Z,98062.11
2018-12-01T11:07:55.806Z,98061.98
2018-12-01T11:10:25.748Z,98048.64
2018-12-01T11:12:56.293Z,98049.45
2018-12-01T11:15:26.227Z,98041.66
2018-12-01T11:17:56.239Z,98042.44
2018-12-01T11:20:25.895Z,98035.19
2018-12-01T11:22:58.030Z,98028.42
2018-12-01T11:25:26.692Z,98027.25
2018-12-01T11:28:16.074Z,98031.85
2018-12-01T11:30:46.534Z,98028.83
2018-12-01T11:33:16.933Z,98025.96
2018-12-01T11:36:06.103Z,98024.15
2018-12-01T11:38:36.422Z,98019.25
2018-12-01T11:41:06.500Z,98014.25
2018-12-01T11:43:36.737Z,98006.43
2018-12-01T11:46:06.974Z,97997.03
2018-12-01T11:48:37.643Z,97987.69
2018-12-01T11:51:08.131Z,97983.81
2018-12-01T11:53:38.460Z,97984.07
2018-12-01T11:56:08.061Z,97981.75
2018-12-01T11:58:38.075Z,97979.38
2018-12-01T12:01:08.012Z,97967.61
2018-12-01T12:03:38.219Z,97971.45
2018-12-01T12:06:08.161Z,97978.64
2018-12-01T12:08:57.759Z,97975.13
2018-12-01T12:11:27.631Z,97981.44
2018-12-01T12:14:16.934Z,97984.42
2018-12-01T12:16:46.930Z,97981.99
2018-12-01T12:19:35.446Z,97974.34
2018-12-01T12:22:05.389Z,97977.52
2018-12-01T12:24:35.811Z,97983.59
2018-12-01T12:27:05.903Z,97982.30
2018-12-01T12:29:36.185Z,97973.81
2018-12-01T12:32:06.369Z,97972.44
2018-12-01T12:34:56.020Z,97970.56
2018-12-01T12:37:26.548Z,97976.02
2018-12-01T12:39:56.470Z,97977.66
2018-12-01T12:42:26.994Z,97973.52
2018-12-01T12:45:16.069Z,97966.47
2018-12-01T12:47:45.829Z,97966.64
2018-12-01T12:50:24.300Z,97962.99
2018-12-01T12:53:13.056Z,97955.06
2018-12-01T12:55:44.557Z,97952.58
2018-12-01T12:58:33.053Z,97949.75
2018-12-01T13:01:02.933Z,97946.66
2018-12-01T13:03:32.522Z,97947.88
2018-12-01T13:06:21.849Z,97945.73
2018-12-01T13:08:51.761Z,97945.06
2018-12-01T13:11:41.175Z,97940.69
2018-12-01T13:14:11.045Z,97938.27
2018-12-01T13:16:40.955Z,97923.66
2018-12-01T13:19:10.586Z,97917.72
2018-12-01T13:21:40.440Z,97925.52
2018-12-01T13:24:10.393Z,97918.67
2018-12-01T13:26:59.472Z,97921.38
2018-12-01T13:29:48.540Z,97914.78
2018-12-01T13:32:18.658Z,97909.11
2018-12-01T13:35:07.541Z,97912.92
2018-12-01T13:37:37.146Z,97909.33
2018-12-01T13:40:26.196Z,97908.77
2018-12-01T13:42:56.155Z,97905.46
2018-12-01T13:45:27.254Z,97897.75
2018-12-01T13:47:57.586Z,97903.52
2018-12-01T13:50:27.800Z,97904.90
2018-12-01T13:53:01.460Z,97905.16
2018-12-01T13:55:31.076Z,97905.37
2018-12-01T13:58:00.681Z,97901.56
2018-12-01T14:00:30.325Z,97908.95
2018-12-01T14:03:01.297Z,97902.77
2018-12-01T14:05:31.185Z,97906.11
2018-12-01T14:08:01.497Z,97913.07
2018-12-01T14:10:51.726Z,97912.84
2018-12-01T14:13:21.314Z,97916.64
2018-12-01T14:15:51.785Z,97920.61
2018-12-01T14:18:21.400Z,97925.73
2018-12-01T14:20:50.993Z,97928.59
2018-12-01T14:23:21.918Z,97926.72
2018-12-01T14:25:52.299Z,97929.70
2018-12-01T14:28:21.887Z,97923.08
2018-12-01T14:30:53.469Z,97922.16
2018-12-01T14:33:23.074Z,97918.41
2018-12-01T14:36:12.116Z,97920.22
2018-12-01T14:38:41.986Z,97916.42
2018-12-01T14:41:11.573Z,97926.55
2018-12-01T14:43:41.172Z,97925.50
2018-12-01T14:46:30.129Z,97926.88
2018-12-01T14:49:00.143Z,97932.29
2018-12-01T14:51:29.986Z,97922.42
2018-12-01T14:53:59.872Z,97928.20
2018-12-01T14:56:29.755Z,97921.21
2018-12-01T14:58:59.344Z,97921.11
2018-12-01T15:01:29.293Z,97913.41
2018-12-01T15:03:59.216Z,97908.04
2018-12-01T15:06:48.021Z,97911.23
2018-12-01T15:09:17.889Z,97901.98
2018-12-01T15:12:02.121Z,97901.58
2018-12-01T15:14:37.475Z,97900.82
2018-12-01T15:17:07.271Z,97899.98
2018-12-01T15:19:56.056Z,97897.81
2018-12-01T15:22:26.482Z,97902.88
2018-12-01T15:25:15.673Z,97900.94
2018-12-01T15:27:45.971Z,97899.83
2018-12-01T15:30:34.929Z,97895.09
2018-12-01T15:33:23.785Z,97895.91
2018-12-01T15:36:13.097Z,97895.59
2018-12-01T15:38:43.273Z,97895.65
2018-12-01T15:41:32.749Z,97900.91
2018-12-01T15:44:21.820Z,97902.64
2018-12-01T15:46:52.751Z,97898.66
2018-12-01T15:49:41.232Z,97900.27
2018-12-01T15:52:11.141Z,97892.16
2018-12-01T15:54:41.762Z,97895.27
2018-12-01T15:57:11.969Z,97896.32
2018-12-01T16:00:01.405Z,97894.36
2018-12-01T16:02:49.918Z,97891.38
2018-12-01T16:05:40.255Z,97894.01
2018-12-01T16:08:11.070Z,97899.41
2018-12-01T16:11:00.759Z,97902.38
2018-12-01T16:13:31.229Z,97903.25
2018-12-01T16:16:21.546Z,97902.05
2018-12-01T16:18:52.068Z,97896.33
2018-12-01T16:21:22.878Z,97898.39
2018-12-01T16:23:52.800Z,97898.13
2018-12-01T16:26:22.411Z,97895.70
2018-12-01T16:28:52.038Z,97890.84
2018-12-01T16:31:22.171Z,97889.15
2018-12-01T16:33:52.101Z,97887.33
2018-12-01T16:36:41.170Z,97891.77
2018-12-01T16:39:11.767Z,97891.39
2018-12-01T16:42:01.636Z,97882.88
2018-12-01T16:44:31.853Z,97883.52
2018-12-01T16:47:01.767Z,97876.89
2018-12-01T16:49:32.805Z,97880.13
2018-12-01T16:52:02.769Z,97885.39
2018-12-01T16:54:52.622Z,97886.46
2018-12-01T16:57:22.350Z,97877.70
2018-12-01T16:59:52.308Z,97870.80
2018-12-01T17:02:22.245Z,97876.44
2018-12-01T17:04:52.492Z,97862.79
2018-12-01T17:07:22.096Z,97876.73
2018-12-01T17:09:51.705Z,97869.18
2018-12-01T17:12:41.254Z,97876.16
2018-12-01T17:15:30.037Z,97878.11
2018-12-01T17:18:19.377Z,97867.05
2018-12-01T17:21:09.497Z,97866.50
2018-12-01T17:23:39.385Z,97867.36
2018-12-01T17:26:09.263Z,97864.56
2018-12-01T17:28:39.560Z,97858.30
2018-12-01T17:31:09.552Z,97865.31
2018-12-01T17:33:40.183Z,97851.25
2018-12-01T17:36:09.863Z,97848.55
2018-12-01T17:38:39.826Z,97842.27
2018-12-01T17:41:29.473Z,97842.36
2018-12-01T17:44:17.996Z,97840.80
2018-12-01T17:46:47.980Z,97837.53
2018-12-01T17:49:17.893Z,97834.57
2018-12-01T17:51:47.855Z,97829.63
2018-12-01T17:54:18.901Z,97838.14
2018-12-01T17:56:48.749Z,97836.31
2018-12-01T17:59:19.297Z,97835.36
2018-12-01T18:01:49.238Z,97836.53
2018-12-01T18:04:19.089Z,97828.73
2018-12-01T18:06:49.009Z,97831.75
2018-12-01T18:09:19.239Z,97828.26
2018-12-01T18:11:48.857Z,97825.88
2018-12-01T18:14:19.421Z,97826.19
2018-12-01T18:16:49.354Z,97823.64
2018-12-01T18:19:19.530Z,97826.77
2018-12-01T18:21:49.401Z,97820.10
2018-12-01T18:24:19.726Z,97818.42
2018-12-01T18:26:50.023Z,97815.67
2018-12-01T18:29:20.261Z,97814.13
2018-12-01T18:31:50.247Z,97810.67
2018-12-01T18:34:20.098Z,97812.69
2018-12-01T18:36:50.935Z,97816.02
2018-12-01T18:39:21.658Z,97818.84
2018-12-01T18:41:51.260Z,97817.19
2018-12-01T18:44:22.313Z,97812.45
2018-12-01T18:46:52.238Z,97807.10
2018-12-01T18:49:22.550Z,97807.10
2018-12-01T18:51:52.431Z,97795.16
2018-12-01T18:54:22.559Z,97791.69
2018-12-01T18:56:52.414Z,97789.81
2018-12-01T18:59:22.287Z,97782.22
2018-12-01T19:01:53.173Z,97779.16
2018-12-01T19:04:22.789Z,97783.87
2018-12-01T19:06:53.074Z,97776.78
2018-12-01T19:09:23.840Z,97782.31
2018-12-01T19:11:53.505Z,97777.45
2018-12-01T19:14:23.743Z,97773.34
2018-12-01T19:16:53.681Z,97776.73
2018-12-01T19:19:24.187Z,97777.16
2018-12-01T19:21:54.489Z,97774.22
2018-12-01T19:24:24.841Z,97767.67
2018-12-01T19:26:54.465Z,97770.55
2018-12-01T19:29:24.981Z,97765.56
2018-12-01T19:31:55.558Z,97772.48
2018-12-01T19:34:25.819Z,97770.78
2018-12-01T19:36:55.725Z,97770.66
2018-12-01T19:39:26.320Z,97770.80
2018-12-01T19:41:56.616Z,97773.03
2018-12-01T19:44:26.498Z,97762.01
2018-12-01T19:46:56.153Z,97765.67
2018-12-01T19:49:26.115Z,97762.52
2018-12-01T19:51:56.416Z,97753.03
2018-12-01T19:54:26.455Z,97744.58
2018-12-01T19:56:56.345Z,97740.78
2018-12-01T19:59:26.706Z,97740.42
2018-12-01T20:01:57.036Z,97729.02
2018-12-01T20:04:27.061Z,97724.08
2018-12-01T20:06:56.687Z,97720.20
2018-12-01T20:09:26.295Z,97716.03
2018-12-01T20:11:56.776Z,97721.29
2018-12-01T20:14:26.554Z,97722.27
2018-12-01T20:16:58.179Z,97728.57
2018-12-01T20:19:28.060Z,97726.14
2018-12-01T20:21:57.688Z,97725.69
2018-12-01T20:24:27.833Z,97722.39
2018-12-01T20:26:57.537Z,97725.50
2018-12-01T20:29:27.745Z,97734.42
2018-12-01T20:31:57.400Z,97740.50
2018-12-01T20:34:27.379Z,97741.11
2018-12-01T20:37:00.354Z,97740.42
2018-12-01T20:39:35.047Z,97743.98
2018-12-01T20:42:04.749Z,97724.77
2018-12-01T20:44:35.011Z,97722.53
2018-12-01T20:47:04.931Z,97720.57
2018-12-01T20:49:36.180Z,97712.79
2018-12-01T20:52:06.530Z,97714.53
2018-12-01T20:54:47.379Z,97708.30
2018-12-01T20:57:33.373Z,97710.55
2018-12-01T21:00:03.142Z,97708.17
2018-12-01T21:02:33.201Z,97700.17
2018-12-01T21:05:03.754Z,97695.90
2018-12-01T21:07:35.171Z,97697.14
2018-12-01T21:10:05.394Z,97699.39
2018-12-01T21:12:35.017Z,97707.16
2018-12-01T21:15:06.239Z,97695.55
2018-12-01T21:17:35.927Z,97681.05
2018-12-01T21:20:08.496Z,97673.50
2018-12-01T21:22:38.225Z,97673.13
2018-12-01T21:25:16.447Z,97664.82
2018-12-01T21:27:46.375Z,97663.13
2018-12-01T21:30:20.597Z,97662.26
2018-12-01T21:32:52.232Z,97659.83
2018-12-01T21:35:22.146Z,97659.73
2018-12-01T21:37:52.687Z,97658.16
2018-12-01T21:40:22.935Z,97641.20
2018-12-01T21:42:53.206Z,97646.73
2018-12-01T21:45:22.910Z,97638.19
2018-12-01T21:47:53.254Z,97629.20
2018-12-01T21:50:23.792Z,97625.31
2018-12-01T21:52:54.788Z,97622.63
2018-12-01T21:55:25.503Z,97622.93
2018-12-01T21:57:56.491Z,97620.39
2018-12-01T22:00:30.310Z,97616.65
2018-12-01T22:03:09.223Z,97614.80
2018-12-01T22:05:59.434Z,97617.73
2018-12-01T22:08:29.364Z,97611.73
2018-12-01T22:11:00.048Z,97613.66
2018-12-01T22:13:29.836Z,97609.16
2018-12-01T22:15:59.876Z,97602.53
2018-12-01T22:18:30.439Z,97601.91
2018-12-01T22:21:00.907Z,97601.42
2018-12-01T22:23:30.852Z,97604.71
2018-12-01T22:26:00.786Z,97606.65
2018-12-01T22:28:35.356Z,97604.57
2018-12-01T22:31:01.435Z,97593.84
2018-12-01T22:33:31.457Z,97598.75
2018-12-01T22:36:01.367Z,97603.14
2018-12-01T22:38:32.058Z,97600.53
2018-12-01T22:41:01.896Z,97594.77
2018-12-01T22:43:31.823Z,97594.88
2018-12-01T22:46:02.045Z,97587.04
2018-12-01T22:48:31.646Z,97582.77
2018-12-01T22:51:01.880Z,97574.50
2018-12-01T22:53:31.477Z,97572.56
2018-12-01T22:56:01.113Z,97570.31
2018-12-01T22:58:30.741Z,97572.80
2018-12-01T23:01:00.881Z,97579.54
2018-12-01T23:03:32.625Z,97566.53
2018-12-01T23:06:02.284Z,97561.37
2018-12-01T23:08:32.192Z,97562.52
2018-12-01T23:11:01.798Z,97558.94
2018-12-01T23:13:31.421Z,97551.75
2018-12-01T23:16:01.662Z,97549.81
2018-12-01T23:18:31.271Z,97547.95
2018-12-01T23:21:01.159Z,97538.73
2018-12-01T23:23:30.814Z,97534.02
2018-12-01T23:26:00.683Z,97531.06
2018-12-01T23:28:30.632Z,97523.94
2018-12-01T23:31:00.244Z,97521.49
2018-12-01T23:33:30.307Z,97520.22
2018-12-01T23:36:00.242Z,97516.84
2018-12-01T23:38:29.838Z,97512.50
2018-12-01T23:41:00.071Z,97508.21
2018-12-01T23:43:29.982Z,97502.27
2018-12-01T23:46:00.187Z,97506.51
2018-12-01T23:48:30.149Z,97506.34
2018-12-01T23:51:00.039Z,97504.69
2018-12-01T23:53:29.985Z,97504.23
2018-12-01T23:56:19.108Z,97501.34
2018-12-01T23:58:48.712Z,97495.86
